createdAt,value
2017-08-06T00:02:16.794Z,58.80
2017-08-06T00:04:44.424Z,58.70
2017-08-06T00:07:12.220Z,58.70
2017-08-06T00:09:39.984Z,58.70
2017-08-06T00:12:07.748Z,58.70
2017-08-06T00:14:35.511Z,58.70
2017-08-06T00:17:03.273Z,58.70
2017-08-06T00:19:31.041Z,58.70
2017-08-06T00:21:58.806Z,58.70
2017-08-06T00:24:26.567Z,58.60
2017-08-06T00:26:54.205Z,58.60
2017-08-06T00:29:21.998Z,58.60
2017-08-06T00:31:49.676Z,58.60
2017-08-06T00:34:17.523Z,58.70
2017-08-06T00:36:45.186Z,58.70
2017-08-06T00:39:12.949Z,58.70
2017-08-06T00:41:40.714Z,58.80
2017-08-06T00:44:08.476Z,58.60
2017-08-06T00:46:36.243Z,58.60
2017-08-06T00:49:04.008Z,58.70
2017-08-06T00:51:31.688Z,58.60
2017-08-06T00:53:59.315Z,58.60
2017-08-06T00:56:27.094Z,58.60
2017-08-06T00:58:54.794Z,58.60
2017-08-06T01:01:23.344Z,58.80
2017-08-06T01:03:51.106Z,58.70
2017-08-06T01:06:18.774Z,58.70
2017-08-06T01:08:46.529Z,58.70
2017-08-06T01:11:14.162Z,58.70
2017-08-06T01:13:41.959Z,58.80
2017-08-06T01:16:09.615Z,58.70
2017-08-06T01:18:37.403Z,58.90
2017-08-06T01:21:05.248Z,58.70
2017-08-06T01:23:33.015Z,58.90
2017-08-06T01:26:00.699Z,59.00
2017-08-06T01:28:28.542Z,59.00
2017-08-06T01:30:56.309Z,59.00
2017-08-06T01:33:24.071Z,58.90
2017-08-06T01:35:51.834Z,59.10
2017-08-06T01:38:19.628Z,59.00
2017-08-06T01:40:47.362Z,58.90
2017-08-06T01:43:15.047Z,59.00
2017-08-06T01:45:42.890Z,58.90
2017-08-06T01:48:10.657Z,58.90
2017-08-06T01:50:38.341Z,59.00
2017-08-06T01:53:06.183Z,59.10
2017-08-06T01:55:33.844Z,59.00
2017-08-06T01:58:01.610Z,59.20
2017-08-06T02:00:29.375Z,58.90
2017-08-06T02:02:57.035Z,59.10
2017-08-06T02:05:24.801Z,59.30
2017-08-06T02:07:52.485Z,59.10
2017-08-06T02:10:20.328Z,59.20
2017-08-06T02:12:48.016Z,59.30
2017-08-06T02:15:15.859Z,59.20
2017-08-06T02:17:43.486Z,59.10
2017-08-06T02:20:11.199Z,59.20
2017-08-06T02:22:38.828Z,59.20
2017-08-06T02:25:06.609Z,59.20
2017-08-06T02:27:34.476Z,59.20
2017-08-06T02:30:02.240Z,59.20
2017-08-06T02:32:30.000Z,59.30
2017-08-06T02:34:57.688Z,59.30
2017-08-06T02:37:25.528Z,59.50
2017-08-06T02:39:53.294Z,59.60
2017-08-06T02:42:21.057Z,59.40
2017-08-06T02:44:48.823Z,59.50
2017-08-06T02:47:16.589Z,59.50
2017-08-06T02:49:44.266Z,59.40
2017-08-06T02:52:12.015Z,59.50
2017-08-06T02:54:39.778Z,59.50
2017-08-06T02:57:07.543Z,59.40
2017-08-06T02:59:35.306Z,59.50
2017-08-06T03:02:03.075Z,59.60
2017-08-06T03:04:30.833Z,59.80
2017-08-06T03:06:58.523Z,59.60
2017-08-06T03:09:26.260Z,59.70
2017-08-06T03:11:54.127Z,59.90
2017-08-06T03:14:21.894Z,59.80
2017-08-06T03:16:49.657Z,59.90
2017-08-06T03:19:17.421Z,59.80
2017-08-06T03:21:45.081Z,59.90
2017-08-06T03:24:12.847Z,60.00
2017-08-06T03:26:40.610Z,60.10
2017-08-06T03:29:08.297Z,60.30
2017-08-06T03:31:36.039Z,60.40
2017-08-06T03:34:03.903Z,60.20
2017-08-06T03:36:31.668Z,60.30
2017-08-06T03:38:59.352Z,60.30
2017-08-06T03:41:27.098Z,60.40
2017-08-06T03:43:54.880Z,60.20
2017-08-06T03:46:22.510Z,60.50
2017-08-06T03:48:50.204Z,60.40
2017-08-06T03:51:18.049Z,60.40
2017-08-06T03:53:45.694Z,60.20
2017-08-06T03:56:13.473Z,60.30
2017-08-06T03:58:41.098Z,60.40
2017-08-06T04:01:08.903Z,60.40
2017-08-06T04:03:36.665Z,60.30
2017-08-06T04:06:04.357Z,60.40
2017-08-06T04:08:32.827Z,60.20
2017-08-06T04:11:00.589Z,60.00
2017-08-06T04:13:28.439Z,60.30
2017-08-06T04:15:56.202Z,60.60
2017-08-06T04:18:24.072Z,60.80
2017-08-06T04:20:51.759Z,60.70
2017-08-06T04:23:19.418Z,60.80
2017-08-06T04:25:47.262Z,60.60
2017-08-06T04:28:14.944Z,61.00
2017-08-06T04:30:42.790Z,61.00
2017-08-06T04:33:10.552Z,61.20
2017-08-06T04:35:38.317Z,61.00
2017-08-06T04:38:06.001Z,61.10
2017-08-06T04:40:33.742Z,61.20
2017-08-06T04:43:01.505Z,61.10
2017-08-06T04:45:29.271Z,61.10
2017-08-06T04:47:56.956Z,61.40
2017-08-06T04:50:24.699Z,61.40
2017-08-06T04:52:52.362Z,61.30
2017-08-06T04:55:20.029Z,61.30
2017-08-06T04:57:47.699Z,61.50
2017-08-06T05:00:15.476Z,61.40
2017-08-06T05:02:43.145Z,61.30
2017-08-06T05:05:11.695Z,61.50
2017-08-06T05:07:39.322Z,61.50
2017-08-06T05:10:07.119Z,61.70
2017-08-06T05:12:34.888Z,61.90
2017-08-06T05:15:02.651Z,61.80
2017-08-06T05:17:30.413Z,61.50
2017-08-06T05:19:58.177Z,61.70
2017-08-06T05:22:26.046Z,61.60
2017-08-06T05:24:53.808Z,61.80
2017-08-06T05:27:21.570Z,61.80
2017-08-06T05:29:49.256Z,62.30
2017-08-06T05:32:17.025Z,62.30
2017-08-06T05:34:44.675Z,62.20
2017-08-06T05:37:12.423Z,62.40
2017-08-06T05:39:40.190Z,62.40
2017-08-06T05:42:07.969Z,62.60
2017-08-06T05:44:35.741Z,62.90
2017-08-06T05:47:03.483Z,62.80
2017-08-06T05:49:31.245Z,63.20
2017-08-06T05:51:58.923Z,62.90
2017-08-06T05:54:26.583Z,62.90
2017-08-06T05:56:54.356Z,63.20
2017-08-06T05:59:22.016Z,63.20
2017-08-06T06:01:49.861Z,63.00
2017-08-06T06:04:17.627Z,63.00
2017-08-06T06:06:45.388Z,62.90
2017-08-06T06:09:13.087Z,63.00
2017-08-06T06:11:41.634Z,64.00
2017-08-06T06:14:09.414Z,62.90
2017-08-06T06:16:37.265Z,63.90
2017-08-06T06:19:05.031Z,63.10
2017-08-06T06:21:32.795Z,63.20
2017-08-06T06:24:00.557Z,63.30
2017-08-06T06:26:28.329Z,63.30
2017-08-06T06:28:56.005Z,63.10
2017-08-06T06:31:23.751Z,63.10
2017-08-06T06:33:51.514Z,63.30
2017-08-06T06:36:19.296Z,63.10
2017-08-06T06:38:47.043Z,63.30
2017-08-06T06:41:14.742Z,63.20
2017-08-06T06:43:43.284Z,63.30
2017-08-06T06:46:10.982Z,63.30
2017-08-06T06:48:38.711Z,63.30
2017-08-06T06:51:06.579Z,63.20
2017-08-06T06:53:34.277Z,63.30
2017-08-06T06:56:02.825Z,63.30
2017-08-06T06:58:30.519Z,63.20
2017-08-06T07:00:58.250Z,63.00
2017-08-06T07:03:26.015Z,63.10
2017-08-06T07:05:53.781Z,63.00
2017-08-06T07:08:21.547Z,62.90
2017-08-06T07:10:49.309Z,63.00
2017-08-06T07:13:17.073Z,62.90
2017-08-06T07:15:44.733Z,62.90
2017-08-06T07:18:12.496Z,63.00
2017-08-06T07:20:40.264Z,63.10
2017-08-06T07:23:08.028Z,63.10
2017-08-06T07:25:35.714Z,63.10
2017-08-06T07:28:03.453Z,62.90
2017-08-06T07:30:31.236Z,63.00
2017-08-06T07:32:58.981Z,62.90
2017-08-06T07:35:26.746Z,63.70
2017-08-06T07:37:54.614Z,63.10
2017-08-06T07:40:22.296Z,63.10
2017-08-06T07:42:50.038Z,63.20
2017-08-06T07:45:17.908Z,63.10
2017-08-06T07:47:45.571Z,62.80
2017-08-06T07:50:13.203Z,62.80
2017-08-06T07:52:41.113Z,62.80
2017-08-06T07:55:08.863Z,62.40
2017-08-06T07:57:36.550Z,62.60
2017-08-06T08:00:04.388Z,62.50
2017-08-06T08:02:32.260Z,62.40
2017-08-06T08:04:59.886Z,62.50
2017-08-06T08:07:27.544Z,62.60
2017-08-06T08:09:55.239Z,62.40
2017-08-06T08:12:23.108Z,62.30
2017-08-06T08:14:50.786Z,62.50
2017-08-06T08:17:18.536Z,62.40
2017-08-06T08:19:46.404Z,62.60
2017-08-06T08:22:14.164Z,62.60
2017-08-06T08:24:42.050Z,62.40
2017-08-06T08:27:09.898Z,62.30
2017-08-06T08:29:37.589Z,62.00
2017-08-06T08:32:05.322Z,62.80
2017-08-06T08:34:33.007Z,61.40
2017-08-06T08:37:00.669Z,61.60
2017-08-06T08:39:28.513Z,61.20
2017-08-06T08:41:57.096Z,61.00
2017-08-06T08:44:24.889Z,60.70
2017-08-06T08:46:53.444Z,60.30
2017-08-06T08:49:21.209Z,60.10
2017-08-06T08:51:48.892Z,60.40
2017-08-06T08:54:16.737Z,59.50
2017-08-06T08:56:44.366Z,59.20
2017-08-06T08:59:12.162Z,59.30
2017-08-06T09:01:39.927Z,59.10
2017-08-06T09:04:07.691Z,57.80
2017-08-06T09:06:35.376Z,58.20
2017-08-06T09:09:03.006Z,58.10
2017-08-06T09:11:30.677Z,58.00
2017-08-06T09:13:58.443Z,57.50
2017-08-06T09:16:26.311Z,57.40
2017-08-06T09:18:54.073Z,57.00
2017-08-06T09:21:21.760Z,57.20
2017-08-06T09:23:49.497Z,56.10
2017-08-06T09:26:17.371Z,56.60
2017-08-06T09:28:45.129Z,57.00
2017-08-06T09:31:12.817Z,56.80
2017-08-06T09:33:40.565Z,56.60
2017-08-06T09:36:08.235Z,56.50
2017-08-06T09:38:35.983Z,56.30
2017-08-06T09:41:03.744Z,55.80
2017-08-06T09:43:31.423Z,56.20
2017-08-06T09:45:59.534Z,55.70
2017-08-06T09:48:27.345Z,56.00
2017-08-06T09:50:55.518Z,55.90
2017-08-06T09:53:23.386Z,55.10
2017-08-06T09:55:51.485Z,54.20
2017-08-06T09:58:19.734Z,54.90
2017-08-06T10:00:47.606Z,54.60
2017-08-06T10:03:15.364Z,54.60
2017-08-06T10:05:43.063Z,54.90
2017-08-06T10:08:11.609Z,53.90
2017-08-06T10:10:39.374Z,53.80
2017-08-06T10:13:07.142Z,53.60
2017-08-06T10:15:35.005Z,53.70
2017-08-06T10:18:02.777Z,53.70
2017-08-06T10:20:30.533Z,53.30
2017-08-06T10:22:58.606Z,53.30
2017-08-06T10:25:26.367Z,52.80
2017-08-06T10:27:54.237Z,52.30
2017-08-06T10:30:21.999Z,52.50
2017-08-06T10:32:49.869Z,52.60
2017-08-06T10:35:17.744Z,51.60
2017-08-06T10:37:45.616Z,51.30
2017-08-06T10:40:13.383Z,51.40
2017-08-06T10:42:41.950Z,51.70
2017-08-06T10:45:09.712Z,51.00
2017-08-06T10:47:37.492Z,50.50
2017-08-06T10:50:05.243Z,49.50
2017-08-06T10:52:33.004Z,49.60
2017-08-06T10:55:00.769Z,50.10
2017-08-06T10:57:28.532Z,50.00
2017-08-06T10:59:56.192Z,49.70
2017-08-06T11:02:23.959Z,49.10
2017-08-06T11:04:51.824Z,49.60
2017-08-06T11:07:19.517Z,49.20
2017-08-06T11:09:47.355Z,48.90
2017-08-06T11:12:15.051Z,48.70
2017-08-06T11:14:43.442Z,47.40
2017-08-06T11:17:11.975Z,47.40
2017-08-06T11:19:39.747Z,47.30
2017-08-06T11:22:07.503Z,47.40
2017-08-06T11:24:35.172Z,47.80
2017-08-06T11:27:02.932Z,47.20
2017-08-06T11:29:30.696Z,46.70
2017-08-06T11:31:58.459Z,46.50
2017-08-06T11:34:26.225Z,46.00
2017-08-06T11:36:53.987Z,46.00
2017-08-06T11:39:21.775Z,45.50
2017-08-06T11:41:49.436Z,45.10
2017-08-06T11:44:17.178Z,45.40
2017-08-06T11:46:44.880Z,44.80
2017-08-06T11:49:13.324Z,44.80
2017-08-06T11:51:41.119Z,44.70
2017-08-06T11:54:08.852Z,45.10
2017-08-06T11:56:36.618Z,44.70
2017-08-06T11:59:04.417Z,44.40
2017-08-06T12:01:32.862Z,45.30
2017-08-06T12:04:00.491Z,44.80
2017-08-06T12:06:28.208Z,44.00
2017-08-06T12:08:55.951Z,43.80
2017-08-06T12:11:23.713Z,43.80
2017-08-06T12:13:51.477Z,43.60
2017-08-06T12:16:19.161Z,43.40
2017-08-06T12:18:47.107Z,43.00
2017-08-06T12:21:14.768Z,43.40
2017-08-06T12:23:42.533Z,43.80
2017-08-06T12:26:10.296Z,43.30
2017-08-06T12:28:38.166Z,43.30
2017-08-06T12:31:05.934Z,43.50
2017-08-06T12:33:33.607Z,44.00
2017-08-06T12:36:01.462Z,43.40
2017-08-06T12:38:29.225Z,42.80
2017-08-06T12:40:57.089Z,41.90
2017-08-06T12:43:24.851Z,42.00
2017-08-06T12:45:52.635Z,42.40
2017-08-06T12:48:20.382Z,41.90
2017-08-06T12:50:48.145Z,41.70
2017-08-06T12:53:15.910Z,42.00
2017-08-06T12:55:43.570Z,42.50
2017-08-06T12:58:11.439Z,41.40
2017-08-06T13:00:39.202Z,42.30
2017-08-06T13:03:07.070Z,41.90
2017-08-06T13:05:34.747Z,41.70
2017-08-06T13:08:02.496Z,41.30
2017-08-06T13:10:30.259Z,41.20
2017-08-06T13:12:58.024Z,42.50
2017-08-06T13:15:25.787Z,42.90
2017-08-06T13:17:53.554Z,42.60
2017-08-06T13:20:21.317Z,42.40
2017-08-06T13:22:49.082Z,42.50
2017-08-06T13:25:16.768Z,42.50
2017-08-06T13:27:44.509Z,42.60
2017-08-06T13:30:12.134Z,42.60
2017-08-06T13:32:39.934Z,42.00
2017-08-06T13:35:07.620Z,41.50
2017-08-06T13:37:35.359Z,41.40
2017-08-06T13:40:03.124Z,41.50
2017-08-06T13:42:30.756Z,41.60
2017-08-06T13:44:58.462Z,41.70
2017-08-06T13:47:26.314Z,41.10
2017-08-06T13:49:54.074Z,40.20
2017-08-06T13:52:21.760Z,41.10
2017-08-06T13:54:49.519Z,40.30
2017-08-06T13:57:17.367Z,40.10
2017-08-06T13:59:45.135Z,40.40
2017-08-06T14:02:12.899Z,39.40
2017-08-06T14:04:40.666Z,38.70
2017-08-06T14:07:08.339Z,38.80
2017-08-06T14:09:36.189Z,38.90
2017-08-06T14:12:03.850Z,39.30
2017-08-06T14:14:31.617Z,39.20
2017-08-06T14:16:59.382Z,39.10
2017-08-06T14:19:27.142Z,38.70
2017-08-06T14:21:54.831Z,39.00
2017-08-06T14:24:22.570Z,38.70
2017-08-06T14:26:50.333Z,38.70
2017-08-06T14:29:18.098Z,37.70
2017-08-06T14:31:45.864Z,36.90
2017-08-06T14:34:13.551Z,38.30
2017-08-06T14:36:41.288Z,38.40
2017-08-06T14:39:08.972Z,39.00
2017-08-06T14:41:36.630Z,38.70
2017-08-06T14:44:04.380Z,38.50
2017-08-06T14:46:32.142Z,38.20
2017-08-06T14:48:59.906Z,39.40
2017-08-06T14:51:27.670Z,38.70
2017-08-06T14:53:55.363Z,38.60
2017-08-06T14:56:23.915Z,38.70
2017-08-06T14:58:51.678Z,38.70
2017-08-06T15:01:19.478Z,38.70
2017-08-06T15:03:47.949Z,38.80
2017-08-06T15:06:15.690Z,38.70
2017-08-06T15:08:43.359Z,38.40
2017-08-06T15:11:11.114Z,38.60
2017-08-06T15:13:38.876Z,38.50
2017-08-06T15:16:06.647Z,39.20
2017-08-06T15:18:34.408Z,39.90
2017-08-06T15:21:02.273Z,39.60
2017-08-06T15:23:29.951Z,39.00
2017-08-06T15:25:57.698Z,38.80
2017-08-06T15:28:25.567Z,39.00
2017-08-06T15:30:53.329Z,38.80
2017-08-06T15:33:21.092Z,38.20
2017-08-06T15:35:48.879Z,38.30
2017-08-06T15:38:16.725Z,38.10
2017-08-06T15:40:44.364Z,38.40
2017-08-06T15:43:12.040Z,38.40
2017-08-06T15:45:39.732Z,38.90
2017-08-06T15:48:07.477Z,38.50
2017-08-06T15:50:35.239Z,38.70
2017-08-06T15:53:02.919Z,38.60
2017-08-06T15:55:30.584Z,38.50
2017-08-06T15:57:58.434Z,38.50
2017-08-06T16:00:26.089Z,39.10
2017-08-06T16:02:53.855Z,39.20
2017-08-06T16:05:21.541Z,38.80
2017-08-06T16:07:49.388Z,39.10
2017-08-06T16:10:17.068Z,39.10
2017-08-06T16:12:44.705Z,39.60
2017-08-06T16:15:12.506Z,40.00
2017-08-06T16:17:41.058Z,40.00
2017-08-06T16:20:08.818Z,39.60
2017-08-06T16:22:36.582Z,40.40
2017-08-06T16:25:04.247Z,40.50
2017-08-06T16:27:32.114Z,40.10
2017-08-06T16:29:59.878Z,41.10
2017-08-06T16:32:27.640Z,41.00
2017-08-06T16:34:55.404Z,40.90
2017-08-06T16:37:23.166Z,41.00
2017-08-06T16:39:50.938Z,41.20
2017-08-06T16:42:18.613Z,41.60
2017-08-06T16:44:46.463Z,41.80
2017-08-06T16:47:14.122Z,42.40
2017-08-06T16:49:41.991Z,42.90
2017-08-06T16:52:09.753Z,43.60
2017-08-06T16:54:37.518Z,43.90
2017-08-06T16:57:05.179Z,44.10
2017-08-06T16:59:32.944Z,44.20
2017-08-06T17:02:00.711Z,44.00
2017-08-06T17:04:28.474Z,44.00
2017-08-06T17:06:56.241Z,44.00
2017-08-06T17:09:24.000Z,44.00
2017-08-06T17:11:51.764Z,44.00
2017-08-06T17:14:19.453Z,43.80
2017-08-06T17:16:47.079Z,44.10
2017-08-06T17:19:14.751Z,44.10
2017-08-06T17:21:42.559Z,43.70
2017-08-06T17:24:11.099Z,44.10
2017-08-06T17:26:38.863Z,44.10
2017-08-06T17:29:06.628Z,44.10
2017-08-06T17:31:34.391Z,43.90
2017-08-06T17:34:02.278Z,44.10
2017-08-06T17:36:30.143Z,44.00
2017-08-06T17:38:58.009Z,44.10
2017-08-06T17:41:25.879Z,44.10
2017-08-06T17:43:53.738Z,44.30
2017-08-06T17:46:21.611Z,44.30
2017-08-06T17:48:49.582Z,44.30
2017-08-06T17:51:17.951Z,44.60
2017-08-06T17:53:46.647Z,45.00
2017-08-06T17:56:14.518Z,44.90
2017-08-06T17:58:42.377Z,45.00
2017-08-06T18:01:10.241Z,44.50
2017-08-06T18:03:38.006Z,44.70
2017-08-06T18:06:05.872Z,44.80
2017-08-06T18:08:33.743Z,44.90
2017-08-06T18:11:01.615Z,44.90
2017-08-06T18:13:29.467Z,44.90
2017-08-06T18:15:57.341Z,45.20
2017-08-06T18:18:25.206Z,45.30
2017-08-06T18:20:53.172Z,45.40
2017-08-06T18:23:20.924Z,45.30
2017-08-06T18:25:48.792Z,45.20
2017-08-06T18:28:16.556Z,45.30
2017-08-06T18:30:44.219Z,45.50
2017-08-06T18:33:12.084Z,45.50
2017-08-06T18:35:39.848Z,45.70
2017-08-06T18:38:07.609Z,45.90
2017-08-06T18:40:35.292Z,46.00
2017-08-06T18:43:03.139Z,46.30
2017-08-06T18:45:30.906Z,46.40
2017-08-06T18:47:58.670Z,46.50
2017-08-06T18:50:26.434Z,46.50
2017-08-06T18:52:54.303Z,46.60
2017-08-06T18:55:21.959Z,46.80
2017-08-06T18:57:49.725Z,47.00
2017-08-06T19:00:17.596Z,47.00
2017-08-06T19:02:45.257Z,47.10
2017-08-06T19:05:13.019Z,47.10
2017-08-06T19:07:40.782Z,47.20
2017-08-06T19:10:08.548Z,47.30
2017-08-06T19:12:36.207Z,47.40
2017-08-06T19:15:03.868Z,47.50
2017-08-06T19:17:31.664Z,47.50
2017-08-06T19:19:59.503Z,47.60
2017-08-06T19:22:27.267Z,47.80
2017-08-06T19:24:55.052Z,47.90
2017-08-06T19:27:22.798Z,48.00
2017-08-06T19:29:50.561Z,48.20
2017-08-06T19:32:18.231Z,48.20
2017-08-06T19:34:45.984Z,48.30
2017-08-06T19:37:13.774Z,48.40
2017-08-06T19:39:41.515Z,48.60
2017-08-06T19:42:09.178Z,48.80
2017-08-06T19:44:36.939Z,48.90
2017-08-06T19:47:04.705Z,48.90
2017-08-06T19:49:32.470Z,49.20
2017-08-06T19:52:00.232Z,49.30
2017-08-06T19:54:28.098Z,49.30
2017-08-06T19:56:55.836Z,49.50
2017-08-06T19:59:23.481Z,49.50
2017-08-06T20:01:51.292Z,49.60
2017-08-06T20:04:19.058Z,49.60
2017-08-06T20:06:49.285Z,49.60
2017-08-06T20:09:17.246Z,49.60
2017-08-06T20:11:44.895Z,49.70
2017-08-06T20:14:12.672Z,49.90
2017-08-06T20:16:40.435Z,50.00
2017-08-06T20:19:08.200Z,50.20
2017-08-06T20:21:35.984Z,50.20
2017-08-06T20:24:03.624Z,50.20
2017-08-06T20:26:31.286Z,50.30
2017-08-06T20:28:59.052Z,50.50
2017-08-06T20:31:26.816Z,50.60
2017-08-06T20:33:54.492Z,50.70
2017-08-06T20:36:22.243Z,50.80
2017-08-06T20:38:49.874Z,50.90
2017-08-06T20:41:17.563Z,51.30
2017-08-06T20:43:45.226Z,51.30
2017-08-06T20:46:12.859Z,51.20
2017-08-06T20:48:40.572Z,51.10
2017-08-06T20:51:08.436Z,51.20
2017-08-06T20:53:36.284Z,51.20
2017-08-06T20:56:03.963Z,51.30
2017-08-06T20:58:31.633Z,51.40
2017-08-06T21:00:59.477Z,51.50
2017-08-06T21:03:27.241Z,51.60
2017-08-06T21:05:54.925Z,51.70
2017-08-06T21:08:22.667Z,51.80
2017-08-06T21:10:50.454Z,51.80
2017-08-06T21:13:18.195Z,51.90
2017-08-06T21:15:45.959Z,52.00
2017-08-06T21:18:13.602Z,52.10
2017-08-06T21:20:41.507Z,52.10
2017-08-06T21:23:09.472Z,52.20
2017-08-06T21:25:37.338Z,52.10
2017-08-06T21:28:05.213Z,52.30
2017-08-06T21:30:33.178Z,52.40
2017-08-06T21:33:00.923Z,52.50
2017-08-06T21:35:28.787Z,52.60
2017-08-06T21:37:56.656Z,52.60
2017-08-06T21:40:24.283Z,52.50
2017-08-06T21:42:55.492Z,52.60
2017-08-06T21:45:31.221Z,52.80
2017-08-06T21:47:59.002Z,52.70
2017-08-06T21:50:26.743Z,52.60
2017-08-06T21:52:54.502Z,52.80
2017-08-06T21:55:22.341Z,52.70
2017-08-06T21:57:50.857Z,52.60
2017-08-06T22:00:18.617Z,52.50
2017-08-06T22:02:46.485Z,52.60
2017-08-06T22:05:14.131Z,52.70
2017-08-06T22:07:41.832Z,52.70
2017-08-06T22:10:09.892Z,53.30
2017-08-06T22:12:37.646Z,52.60
2017-08-06T22:15:05.510Z,52.80
2017-08-06T22:17:33.277Z,52.80
2017-08-06T22:20:01.041Z,52.90
2017-08-06T22:22:28.834Z,53.10
2017-08-06T22:24:56.671Z,53.10
2017-08-06T22:27:24.638Z,53.30
2017-08-06T22:29:52.404Z,53.20
2017-08-06T22:32:20.289Z,53.30
2017-08-06T22:34:48.136Z,53.40
2017-08-06T22:37:15.900Z,53.80
2017-08-06T22:39:43.663Z,54.00
2017-08-06T22:42:11.347Z,53.80
2017-08-06T22:44:39.090Z,53.90
2017-08-06T22:47:06.853Z,53.90
2017-08-06T22:49:34.634Z,54.00
2017-08-06T22:52:02.486Z,53.80
2017-08-06T22:54:30.253Z,53.80
2017-08-06T22:56:58.014Z,53.80
2017-08-06T22:59:25.899Z,54.10
2017-08-06T23:01:53.647Z,54.30
2017-08-06T23:04:21.412Z,54.20
2017-08-06T23:06:49.102Z,54.10
2017-08-06T23:09:16.836Z,54.20
2017-08-06T23:11:44.528Z,54.20
2017-08-06T23:14:12.287Z,54.20
2017-08-06T23:16:40.026Z,54.20
2017-08-06T23:19:07.791Z,54.10
2017-08-06T23:21:35.557Z,54.20
2017-08-06T23:24:03.320Z,54.40
2017-08-06T23:28:52.933Z,54.40
2017-08-06T23:31:20.593Z,54.30
2017-08-06T23:33:48.334Z,54.50
2017-08-06T23:36:16.097Z,54.60
2017-08-06T23:38:43.739Z,54.40
2017-08-06T23:41:11.527Z,54.30
2017-08-06T23:43:39.393Z,54.40
2017-08-06T23:46:07.272Z,54.40
2017-08-06T23:48:35.037Z,54.60
2017-08-06T23:51:02.887Z,54.60
2017-08-06T23:53:30.654Z,54.50
2017-08-06T23:55:58.415Z,55.20
2017-08-06T23:58:26.186Z,54.70
